Terminal Aerodrome Forecast
Issued by NWS Cleveland, OH

Home | Current Version | Previous Version | Graphics & Text | Print | Product List | Glossary Off
Versions: 1 2 3 4 5 6 7 8 9 10 11 12 13 14 15 16

933
FTUS41 KCLE 210700 AAA
TAFYNG
TAF AMD
KYNG 210707Z 2107/2206 VRB03KT P6SM -RA SCT050 OVC080
     FM210900 VRB04KT P6SM OVC060
     FM211500 32008KT P6SM OVC080
     FM220000 26005KT P6SM SCT070=

USA.gov is the U.S. government's official web portal to all federal, state and local government web resources and services.